sensor_id;sensor_type;location;lat;lon;timestamp;pressure;altitude;pressure_sealevel;temperature;humidity
72124;BME280;63818;37.134;-8.548;2023-07-24T00:00:22;101110.5;;;25.0;45.4
72124;BME280;63818;37.134;-8.548;2023-07-24T00:05:11;101118.4;;;25.0;45.3
72124;BME280;63818;37.134;-8.548;2023-07-24T00:10:03;101113.2;;;24.9;45.9
72124;BME280;63818;37.134;-8.548;2023-07-24T00:14:51;101118.4;;;24.9;46.0
72124;BME280;63818;37.134;-8.548;2023-07-24T00:19:37;101112.5;;;24.9;46.2
72124;BME280;63818;37.134;-8.548;2023-07-24T00:24:23;101110.9;;;24.8;46.5
72124;BME280;63818;37.134;-8.548;2023-07-24T00:29:11;101103.8;;;24.7;46.7
72124;BME280;63818;37.134;-8.548;2023-07-24T00:33:57;101106.2;;;24.7;46.7
72124;BME280;63818;37.134;-8.548;2023-07-24T00:38:43;101104.2;;;24.7;46.7
72124;BME280;63818;37.134;-8.548;2023-07-24T00:43:30;101105.0;;;24.7;47.0
72124;BME280;63818;37.134;-8.548;2023-07-24T00:48:17;101099.9;;;24.6;47.4
72124;BME280;63818;37.134;-8.548;2023-07-24T00:53:06;101106.2;;;24.5;48.0
72124;BME280;63818;37.134;-8.548;2023-07-24T00:57:52;101108.1;;;24.4;48.3
72124;BME280;63818;37.134;-8.548;2023-07-24T01:02:40;101116.7;;;24.1;49.9
72124;BME280;63818;37.134;-8.548;2023-07-24T01:07:27;101102.5;;;23.9;51.1
72124;BME280;63818;37.134;-8.548;2023-07-24T01:12:25;101107.3;;;24.0;51.1
72124;BME280;63818;37.134;-8.548;2023-07-24T01:17:16;101107.3;;;24.0;51.4
72124;BME280;63818;37.134;-8.548;2023-07-24T01:22:12;101114.0;;;24.1;51.6
72124;BME280;63818;37.134;-8.548;2023-07-24T01:26:58;101117.5;;;24.2;51.6
72124;BME280;63818;37.134;-8.548;2023-07-24T01:31:44;101121.0;;;24.1;51.4
72124;BME280;63818;37.134;-8.548;2023-07-24T01:36:30;101114.8;;;24.1;51.8
72124;BME280;63818;37.134;-8.548;2023-07-24T01:41:17;101115.9;;;24.0;52.1
72124;BME280;63818;37.134;-8.548;2023-07-24T01:46:03;101126.2;;;24.2;51.9
72124;BME280;63818;37.134;-8.548;2023-07-24T01:50:49;101117.5;;;24.1;51.7
72124;BME280;63818;37.134;-8.548;2023-07-24T01:55:35;101126.1;;;24.1;51.6
72124;BME280;63818;37.134;-8.548;2023-07-24T02:00:23;101122.2;;;24.0;52.1
72124;BME280;63818;37.134;-8.548;2023-07-24T02:05:09;101113.2;;;24.1;52.0
72124;BME280;63818;37.134;-8.548;2023-07-24T02:09:57;101114.0;;;24.0;51.8
72124;BME280;63818;37.134;-8.548;2023-07-24T02:14:43;101117.9;;;24.0;51.9
72124;BME280;63818;37.134;-8.548;2023-07-24T02:19:29;101114.7;;;23.8;52.2
72124;BME280;63818;37.134;-8.548;2023-07-24T02:24:15;101127.6;;;23.8;52.6
72124;BME280;63818;37.134;-8.548;2023-07-24T02:29:02;101128.0;;;23.9;52.8
72124;BME280;63818;37.134;-8.548;2023-07-24T02:33:48;101122.9;;;23.8;53.1
72124;BME280;63818;37.134;-8.548;2023-07-24T02:38:34;101111.6;;;23.9;53.1
72124;BME280;63818;37.134;-8.548;2023-07-24T02:43:22;101118.2;;;23.9;53.2
72124;BME280;63818;37.134;-8.548;2023-07-24T02:48:14;101106.8;;;23.8;53.4
72124;BME280;63818;37.134;-8.548;2023-07-24T02:53:01;101109.6;;;23.8;53.3
72124;BME280;63818;37.134;-8.548;2023-07-24T02:57:47;101098.2;;;23.8;53.6
72124;BME280;63818;37.134;-8.548;2023-07-24T03:02:33;101093.9;;;23.6;54.0
72124;BME280;63818;37.134;-8.548;2023-07-24T03:07:22;101101.0;;;23.8;53.8
72124;BME280;63818;37.134;-8.548;2023-07-24T03:12:10;101100.5;;;23.7;54.0
72124;BME280;63818;37.134;-8.548;2023-07-24T03:16:56;101099.3;;;23.7;54.1
72124;BME280;63818;37.134;-8.548;2023-07-24T03:21:42;101108.1;;;23.2;54.5
72124;BME280;63818;37.134;-8.548;2023-07-24T03:26:30;101099.2;;;23.3;55.1
72124;BME280;63818;37.134;-8.548;2023-07-24T03:31:15;101107.1;;;23.4;54.5
72124;BME280;63818;37.134;-8.548;2023-07-24T03:36:03;101112.2;;;23.5;55.0
72124;BME280;63818;37.134;-8.548;2023-07-24T03:40:49;101119.3;;;23.5;54.5
72124;BME280;63818;37.134;-8.548;2023-07-24T03:45:37;101111.0;;;23.5;54.8
72124;BME280;63818;37.134;-8.548;2023-07-24T03:50:23;101108.6;;;23.4;55.0
72124;BME280;63818;37.134;-8.548;2023-07-24T03:55:11;101117.2;;;23.4;55.1
72124;BME280;63818;37.134;-8.548;2023-07-24T03:59:58;101120.7;;;23.3;55.3
72124;BME280;63818;37.134;-8.548;2023-07-24T04:09:44;101133.1;;;23.1;56.3
72124;BME280;63818;37.134;-8.548;2023-07-24T04:14:30;101134.0;;;23.3;55.7
72124;BME280;63818;37.134;-8.548;2023-07-24T04:19:22;101135.5;;;23.1;55.8
72124;BME280;63818;37.134;-8.548;2023-07-24T04:24:08;101134.3;;;23.2;56.1
72124;BME280;63818;37.134;-8.548;2023-07-24T04:28:58;101135.6;;;23.2;55.8
72124;BME280;63818;37.134;-8.548;2023-07-24T04:33:44;101134.7;;;23.1;55.8
72124;BME280;63818;37.134;-8.548;2023-07-24T04:38:31;101136.2;;;23.0;56.5
72124;BME280;63818;37.134;-8.548;2023-07-24T04:43:18;101147.2;;;23.1;56.7
72124;BME280;63818;37.134;-8.548;2023-07-24T04:48:04;101147.2;;;23.0;56.7
72124;BME280;63818;37.134;-8.548;2023-07-24T04:52:51;101159.4;;;23.1;56.4
72124;BME280;63818;37.134;-8.548;2023-07-24T04:57:36;101167.2;;;23.2;56.0
72124;BME280;63818;37.134;-8.548;2023-07-24T05:02:22;101175.8;;;23.1;56.8
72124;BME280;63818;37.134;-8.548;2023-07-24T05:07:13;101174.6;;;23.0;57.0
72124;BME280;63818;37.134;-8.548;2023-07-24T05:12:00;101177.3;;;23.0;57.6
72124;BME280;63818;37.134;-8.548;2023-07-24T05:16:48;101185.5;;;23.0;57.7
72124;BME280;63818;37.134;-8.548;2023-07-24T05:21:36;101190.9;;;22.9;58.5
72124;BME280;63818;37.134;-8.548;2023-07-24T05:26:22;101192.1;;;22.9;58.7
72124;BME280;63818;37.134;-8.548;2023-07-24T05:31:07;101194.2;;;22.7;58.2
72124;BME280;63818;37.134;-8.548;2023-07-24T05:35:57;101205.5;;;22.2;60.1
72124;BME280;63818;37.134;-8.548;2023-07-24T05:40:43;101216.4;;;22.2;60.4
72124;BME280;63818;37.134;-8.548;2023-07-24T05:45:29;101208.1;;;22.1;61.4
72124;BME280;63818;37.134;-8.548;2023-07-24T05:50:18;101228.0;;;22.1;62.6
72124;BME280;63818;37.134;-8.548;2023-07-24T05:55:05;101221.2;;;22.2;61.5
72124;BME280;63818;37.134;-8.548;2023-07-24T05:59:51;101231.8;;;22.3;61.6
72124;BME280;63818;37.134;-8.548;2023-07-24T06:04:37;101222.2;;;22.1;61.8
72124;BME280;63818;37.134;-8.548;2023-07-24T06:09:33;101237.1;;;22.1;61.9
72124;BME280;63818;37.134;-8.548;2023-07-24T06:14:19;101239.6;;;22.3;61.8
72124;BME280;63818;37.134;-8.548;2023-07-24T06:19:06;101245.3;;;22.4;61.3
72124;BME280;63818;37.134;-8.548;2023-07-24T06:23:54;101255.1;;;22.5;61.2
72124;BME280;63818;37.134;-8.548;2023-07-24T06:28:40;101262.7;;;22.3;61.6
72124;BME280;63818;37.134;-8.548;2023-07-24T06:33:26;101264.5;;;22.5;61.4
72124;BME280;63818;37.134;-8.548;2023-07-24T06:38:20;101265.0;;;22.6;60.9
72124;BME280;63818;37.134;-8.548;2023-07-24T06:43:06;101269.8;;;22.7;60.7
72124;BME280;63818;37.134;-8.548;2023-07-24T06:47:54;101268.7;;;22.8;60.7
72124;BME280;63818;37.134;-8.548;2023-07-24T06:52:43;101275.8;;;22.8;60.7
72124;BME280;63818;37.134;-8.548;2023-07-24T06:57:29;101279.0;;;22.9;60.8
72124;BME280;63818;37.134;-8.548;2023-07-24T07:02:17;101274.7;;;22.9;60.7
72124;BME280;63818;37.134;-8.548;2023-07-24T07:07:04;101284.6;;;23.1;60.3
72124;BME280;63818;37.134;-8.548;2023-07-24T07:11:52;101292.5;;;23.1;60.2
72124;BME280;63818;37.134;-8.548;2023-07-24T07:16:38;101301.9;;;23.1;60.5
72124;BME280;63818;37.134;-8.548;2023-07-24T07:21:24;101306.8;;;23.3;60.1
72124;BME280;63818;37.134;-8.548;2023-07-24T07:26:13;101313.0;;;23.2;60.4
72124;BME280;63818;37.134;-8.548;2023-07-24T07:30:58;101309.9;;;23.3;60.0
72124;BME280;63818;37.134;-8.548;2023-07-24T07:35:54;101308.3;;;23.2;60.5
72124;BME280;63818;37.134;-8.548;2023-07-24T07:40:40;101309.1;;;23.3;60.3
72124;BME280;63818;37.134;-8.548;2023-07-24T07:45:35;101311.1;;;23.3;60.2
72124;BME280;63818;37.134;-8.548;2023-07-24T07:50:22;101310.0;;;23.4;60.3
72124;BME280;63818;37.134;-8.548;2023-07-24T07:55:08;101307.6;;;23.4;60.3
72124;BME280;63818;37.134;-8.548;2023-07-24T07:59:56;101308.0;;;23.3;60.0
72124;BME280;63818;37.134;-8.548;2023-07-24T08:04:42;101319.8;;;23.4;60.2
72124;BME280;63818;37.134;-8.548;2023-07-24T08:09:30;101315.6;;;23.5;60.0
72124;BME280;63818;37.134;-8.548;2023-07-24T08:14:18;101309.7;;;23.5;59.7
72124;BME280;63818;37.134;-8.548;2023-07-24T08:19:03;101314.5;;;23.5;59.7
72124;BME280;63818;37.134;-8.548;2023-07-24T08:23:51;101313.0;;;23.6;59.6
72124;BME280;63818;37.134;-8.548;2023-07-24T08:28:37;101317.7;;;23.8;59.6
72124;BME280;63818;37.134;-8.548;2023-07-24T08:33:25;101303.7;;;23.8;58.2
72124;BME280;63818;37.134;-8.548;2023-07-24T08:38:12;101310.4;;;23.9;58.1
72124;BME280;63818;37.134;-8.548;2023-07-24T08:42:58;101303.3;;;23.9;58.5
72124;BME280;63818;37.134;-8.548;2023-07-24T08:47:49;101297.3;;;23.7;58.6
72124;BME280;63818;37.134;-8.548;2023-07-24T08:52:39;101294.6;;;23.8;58.7
72124;BME280;63818;37.134;-8.548;2023-07-24T08:57:29;101300.5;;;23.8;58.6
72124;BME280;63818;37.134;-8.548;2023-07-24T09:02:16;101287.6;;;23.9;57.5
72124;BME280;63818;37.134;-8.548;2023-07-24T09:07:06;101289.7;;;24.0;57.7
72124;BME280;63818;37.134;-8.548;2023-07-24T09:11:55;101290.5;;;24.1;57.8
72124;BME280;63818;37.134;-8.548;2023-07-24T09:16:48;101279.1;;;24.2;58.0
72124;BME280;63818;37.134;-8.548;2023-07-24T09:21:33;101297.9;;;24.1;57.9
72124;BME280;63818;37.134;-8.548;2023-07-24T09:26:26;101291.8;;;24.2;57.8
72124;BME280;63818;37.134;-8.548;2023-07-24T09:31:12;101287.1;;;24.3;57.6
72124;BME280;63818;37.134;-8.548;2023-07-24T09:36:04;101298.0;;;24.3;57.7
72124;BME280;63818;37.134;-8.548;2023-07-24T09:40:54;101288.7;;;24.4;57.7
72124;BME280;63818;37.134;-8.548;2023-07-24T09:45:40;101291.1;;;24.6;56.6
72124;BME280;63818;37.134;-8.548;2023-07-24T09:55:23;101281.7;;;24.7;55.2
72124;BME280;63818;37.134;-8.548;2023-07-24T10:00:15;101287.6;;;24.8;55.9
72124;BME280;63818;37.134;-8.548;2023-07-24T10:05:03;101299.8;;;24.7;56.3
72124;BME280;63818;37.134;-8.548;2023-07-24T10:09:49;101300.5;;;24.7;56.6
72124;BME280;63818;37.134;-8.548;2023-07-24T10:14:45;101287.6;;;24.8;56.3
72124;BME280;63818;37.134;-8.548;2023-07-24T10:19:41;101299.0;;;24.9;56.2
72124;BME280;63818;37.134;-8.548;2023-07-24T10:24:30;101306.5;;;24.9;56.8
72124;BME280;63818;37.134;-8.548;2023-07-24T10:29:20;101304.6;;;25.0;56.8
72124;BME280;63818;37.134;-8.548;2023-07-24T10:34:07;101317.1;;;25.0;55.9
72124;BME280;63818;37.134;-8.548;2023-07-24T10:38:54;101301.8;;;25.2;55.8
72124;BME280;63818;37.134;-8.548;2023-07-24T10:43:46;101296.7;;;25.2;55.3
72124;BME280;63818;37.134;-8.548;2023-07-24T10:48:32;101312.4;;;25.2;55.4
72124;BME280;63818;37.134;-8.548;2023-07-24T10:53:22;101300.6;;;25.2;55.3
72124;BME280;63818;37.134;-8.548;2023-07-24T10:58:08;101301.8;;;25.3;55.5
72124;BME280;63818;37.134;-8.548;2023-07-24T11:02:55;101322.2;;;25.2;55.5
72124;BME280;63818;37.134;-8.548;2023-07-24T11:07:45;101299.1;;;25.3;55.2
72124;BME280;63818;37.134;-8.548;2023-07-24T11:12:31;101309.3;;;25.4;54.7
72124;BME280;63818;37.134;-8.548;2023-07-24T11:17:19;101298.7;;;25.4;54.5
72124;BME280;63818;37.134;-8.548;2023-07-24T11:22:09;101303.4;;;25.5;54.0
72124;BME280;63818;37.134;-8.548;2023-07-24T11:26:57;101297.5;;;25.5;53.7
72124;BME280;63818;37.134;-8.548;2023-07-24T11:31:55;101294.4;;;25.7;53.4
72124;BME280;63818;37.134;-8.548;2023-07-24T11:36:41;101294.3;;;25.8;52.8
72124;BME280;63818;37.134;-8.548;2023-07-24T11:41:32;101301.8;;;25.8;52.9
72124;BME280;63818;37.134;-8.548;2023-07-24T11:46:25;101292.0;;;25.8;52.6
72124;BME280;63818;37.134;-8.548;2023-07-24T11:51:12;101287.6;;;25.9;52.4
72124;BME280;63818;37.134;-8.548;2023-07-24T11:55:59;101299.7;;;26.1;52.0
72124;BME280;63818;37.134;-8.548;2023-07-24T12:00:47;101292.2;;;26.2;52.2
72124;BME280;63818;37.134;-8.548;2023-07-24T12:05:39;101286.3;;;26.2;52.3
72124;BME280;63818;37.134;-8.548;2023-07-24T12:10:28;101289.5;;;26.1;52.9
72124;BME280;63818;37.134;-8.548;2023-07-24T12:15:14;101291.5;;;26.0;53.5
72124;BME280;63818;37.134;-8.548;2023-07-24T12:20:00;101281.2;;;26.1;52.9
72124;BME280;63818;37.134;-8.548;2023-07-24T12:24:47;101267.1;;;26.1;52.8
72124;BME280;63818;37.134;-8.548;2023-07-24T12:29:36;101291.5;;;26.1;52.8
72124;BME280;63818;37.134;-8.548;2023-07-24T12:34:24;101267.4;;;26.3;52.3
72124;BME280;63818;37.134;-8.548;2023-07-24T12:39:11;101274.9;;;26.3;52.1
72124;BME280;63818;37.134;-8.548;2023-07-24T12:43:59;101283.9;;;26.3;51.7
72124;BME280;63818;37.134;-8.548;2023-07-24T12:48:48;101277.2;;;26.3;51.2
72124;BME280;63818;37.134;-8.548;2023-07-24T12:53:34;101248.5;;;26.3;50.7
72124;BME280;63818;37.134;-8.548;2023-07-24T12:58:21;101274.0;;;26.4;50.9
72124;BME280;63818;37.134;-8.548;2023-07-24T13:03:09;101267.3;;;26.4;50.7
72124;BME280;63818;37.134;-8.548;2023-07-24T13:07:55;101275.9;;;26.5;50.8
72124;BME280;63818;37.134;-8.548;2023-07-24T13:12:44;101268.5;;;26.4;51.1
72124;BME280;63818;37.134;-8.548;2023-07-24T13:17:29;101267.8;;;26.4;51.1
72124;BME280;63818;37.134;-8.548;2023-07-24T13:22:17;101284.3;;;26.4;50.5
72124;BME280;63818;37.134;-8.548;2023-07-24T13:27:04;101248.0;;;26.4;49.8
72124;BME280;63818;37.134;-8.548;2023-07-24T13:31:51;101254.0;;;26.4;49.2
72124;BME280;63818;37.134;-8.548;2023-07-24T13:36:37;101236.1;;;26.7;49.0
72124;BME280;63818;37.134;-8.548;2023-07-24T13:41:23;101248.7;;;26.6;48.2
72124;BME280;63818;37.134;-8.548;2023-07-24T13:46:09;101242.0;;;26.6;48.1
72124;BME280;63818;37.134;-8.548;2023-07-24T13:50:56;101223.9;;;26.7;47.4
72124;BME280;63818;37.134;-8.548;2023-07-24T13:55:43;101252.2;;;26.7;46.9
72124;BME280;63818;37.134;-8.548;2023-07-24T14:00:29;101233.8;;;26.6;47.4
72124;BME280;63818;37.134;-8.548;2023-07-24T14:05:21;101259.7;;;26.7;46.9
72124;BME280;63818;37.134;-8.548;2023-07-24T14:10:08;101223.8;;;26.8;46.6
72124;BME280;63818;37.134;-8.548;2023-07-24T14:14:55;101206.1;;;26.8;45.8
72124;BME280;63818;37.134;-8.548;2023-07-24T14:19:42;101208.2;;;27.0;45.5
72124;BME280;63818;37.134;-8.548;2023-07-24T14:24:30;101227.2;;;27.0;46.3
72124;BME280;63818;37.134;-8.548;2023-07-24T14:29:17;101211.5;;;27.0;46.2
72124;BME280;63818;37.134;-8.548;2023-07-24T14:34:03;101243.4;;;26.9;45.2
72124;BME280;63818;37.134;-8.548;2023-07-24T14:38:54;101193.0;;;26.8;44.7
72124;BME280;63818;37.134;-8.548;2023-07-24T14:43:41;101205.9;;;27.0;43.5
72124;BME280;63818;37.134;-8.548;2023-07-24T14:48:27;101202.3;;;27.1;43.7
72124;BME280;63818;37.134;-8.548;2023-07-24T14:53:14;101221.9;;;27.2;43.5
72124;BME280;63818;37.134;-8.548;2023-07-24T14:58:00;101203.4;;;27.1;43.5
72124;BME280;63818;37.134;-8.548;2023-07-24T15:02:48;101208.2;;;27.0;43.1
72124;BME280;63818;37.134;-8.548;2023-07-24T15:07:34;101192.5;;;27.4;42.7
72124;BME280;63818;37.134;-8.548;2023-07-24T15:12:24;101222.5;;;27.4;43.0
72124;BME280;63818;37.134;-8.548;2023-07-24T15:17:12;101232.5;;;27.3;43.6
72124;BME280;63818;37.134;-8.548;2023-07-24T15:21:58;101210.6;;;27.5;43.3
72124;BME280;63818;37.134;-8.548;2023-07-24T15:26:44;101207.3;;;27.6;44.0
72124;BME280;63818;37.134;-8.548;2023-07-24T15:31:36;101219.8;;;27.7;43.8
72124;BME280;63818;37.134;-8.548;2023-07-24T15:36:22;101192.8;;;27.8;42.8
72124;BME280;63818;37.134;-8.548;2023-07-24T15:41:14;101228.6;;;27.9;42.0
72124;BME280;63818;37.134;-8.548;2023-07-24T15:46:01;101202.1;;;28.3;42.1
72124;BME280;63818;37.134;-8.548;2023-07-24T15:50:50;101189.2;;;28.8;40.5
72124;BME280;63818;37.134;-8.548;2023-07-24T15:55:36;101198.0;;;28.9;39.9
72124;BME280;63818;37.134;-8.548;2023-07-24T16:00:26;101194.2;;;29.0;39.1
72124;BME280;63818;37.134;-8.548;2023-07-24T16:05:21;101218.1;;;29.1;39.4
72124;BME280;63818;37.134;-8.548;2023-07-24T16:10:07;101166.4;;;29.4;38.3
72124;BME280;63818;37.134;-8.548;2023-07-24T16:14:53;101221.0;;;30.3;37.1
72124;BME280;63818;37.134;-8.548;2023-07-24T16:19:40;101196.2;;;31.8;34.5
72124;BME280;63818;37.134;-8.548;2023-07-24T16:24:26;101182.3;;;32.8;32.9
72124;BME280;63818;37.134;-8.548;2023-07-24T16:29:15;101188.0;;;33.5;31.6
72124;BME280;63818;37.134;-8.548;2023-07-24T16:38:54;101184.2;;;34.7;29.5
72124;BME280;63818;37.134;-8.548;2023-07-24T16:43:50;101191.2;;;34.1;30.6
72124;BME280;63818;37.134;-8.548;2023-07-24T16:48:37;101163.7;;;34.9;29.3
72124;BME280;63818;37.134;-8.548;2023-07-24T16:53:25;101145.9;;;34.8;29.7
72124;BME280;63818;37.134;-8.548;2023-07-24T16:58:09;101150.5;;;33.9;30.7
72124;BME280;63818;37.134;-8.548;2023-07-24T17:02:55;101157.4;;;33.5;31.1
72124;BME280;63818;37.134;-8.548;2023-07-24T17:07:40;101180.6;;;32.3;33.4
72124;BME280;63818;37.134;-8.548;2023-07-24T17:12:26;101147.4;;;31.8;34.2
72124;BME280;63818;37.134;-8.548;2023-07-24T17:17:11;101147.3;;;31.3;35.0
72124;BME280;63818;37.134;-8.548;2023-07-24T17:22:02;101125.7;;;30.6;35.8
72124;BME280;63818;37.134;-8.548;2023-07-24T17:26:47;101137.2;;;29.9;37.1
72124;BME280;63818;37.134;-8.548;2023-07-24T17:31:37;101131.1;;;29.4;38.1
72124;BME280;63818;37.134;-8.548;2023-07-24T17:36:22;101145.5;;;29.3;38.0
72124;BME280;63818;37.134;-8.548;2023-07-24T17:41:08;101145.7;;;29.0;38.6
72124;BME280;63818;37.134;-8.548;2023-07-24T17:45:55;101150.5;;;28.7;38.8
72124;BME280;63818;37.134;-8.548;2023-07-24T17:50:41;101164.0;;;28.5;39.6
72124;BME280;63818;37.134;-8.548;2023-07-24T17:55:29;101170.6;;;28.2;40.1
72124;BME280;63818;37.134;-8.548;2023-07-24T18:00:20;101169.1;;;27.9;40.7
72124;BME280;63818;37.134;-8.548;2023-07-24T18:05:06;101172.8;;;27.7;40.5
72124;BME280;63818;37.134;-8.548;2023-07-24T18:14:44;101172.8;;;27.7;40.3
72124;BME280;63818;37.134;-8.548;2023-07-24T18:19:30;101179.2;;;27.3;41.2
72124;BME280;63818;37.134;-8.548;2023-07-24T18:24:19;101179.6;;;27.3;41.4
72124;BME280;63818;37.134;-8.548;2023-07-24T18:29:05;101204.0;;;26.9;42.0
72124;BME280;63818;37.134;-8.548;2023-07-24T18:33:51;101183.3;;;27.1;41.7
72124;BME280;63818;37.134;-8.548;2023-07-24T18:38:37;101190.8;;;26.7;42.4
72124;BME280;63818;37.134;-8.548;2023-07-24T18:43:25;101192.1;;;26.6;43.1
72124;BME280;63818;37.134;-8.548;2023-07-24T18:48:11;101205.8;;;26.5;43.0
72124;BME280;63818;37.134;-8.548;2023-07-24T18:52:59;101190.2;;;26.4;42.8
72124;BME280;63818;37.134;-8.548;2023-07-24T18:57:53;101213.5;;;26.3;43.2
72124;BME280;63818;37.134;-8.548;2023-07-24T19:02:41;101207.3;;;26.0;43.7
72124;BME280;63818;37.134;-8.548;2023-07-24T19:07:38;101213.2;;;26.0;43.6
72124;BME280;63818;37.134;-8.548;2023-07-24T19:12:23;101208.6;;;25.8;43.6
72124;BME280;63818;37.134;-8.548;2023-07-24T19:17:10;101218.9;;;25.6;44.1
72124;BME280;63818;37.134;-8.548;2023-07-24T19:21:57;101208.6;;;25.5;43.9
72124;BME280;63818;37.134;-8.548;2023-07-24T19:26:43;101237.4;;;25.2;44.5
72124;BME280;63818;37.134;-8.548;2023-07-24T19:31:32;101224.4;;;25.0;45.2
72124;BME280;63818;37.134;-8.548;2023-07-24T19:36:20;101246.4;;;24.8;45.3
72124;BME280;63818;37.134;-8.548;2023-07-24T19:41:06;101231.8;;;24.5;46.1
72124;BME280;63818;37.134;-8.548;2023-07-24T19:46:06;101227.4;;;24.2;47.1
72124;BME280;63818;37.134;-8.548;2023-07-24T19:50:55;101255.2;;;24.1;47.6
72124;BME280;63818;37.134;-8.548;2023-07-24T19:55:41;101275.8;;;23.8;48.1
72124;BME280;63818;37.134;-8.548;2023-07-24T20:00:29;101263.8;;;23.5;49.2
72124;BME280;63818;37.134;-8.548;2023-07-24T20:05:15;101262.1;;;23.3;50.1
72124;BME280;63818;37.134;-8.548;2023-07-24T20:10:05;101273.1;;;23.3;50.3
72124;BME280;63818;37.134;-8.548;2023-07-24T20:14:51;101274.0;;;23.5;50.0
72124;BME280;63818;37.134;-8.548;2023-07-24T20:19:37;97689.7;;;-1.0;49.9
72124;BME280;63818;37.134;-8.548;2023-07-24T20:24:26;101294.9;;;23.2;50.7
72124;BME280;63818;37.134;-8.548;2023-07-24T20:29:19;101309.8;;;23.2;51.1
72124;BME280;63818;37.134;-8.548;2023-07-24T20:34:05;101311.2;;;23.0;51.7
72124;BME280;63818;37.134;-8.548;2023-07-24T20:38:51;101303.7;;;22.9;52.1
72124;BME280;63818;37.134;-8.548;2023-07-24T20:43:37;101323.7;;;22.6;52.9
72124;BME280;63818;37.134;-8.548;2023-07-24T20:48:23;101330.8;;;22.6;52.8
72124;BME280;63818;37.134;-8.548;2023-07-24T20:53:14;101314.8;;;22.7;53.0
72124;BME280;63818;37.134;-8.548;2023-07-24T20:58:00;101324.0;;;22.5;53.4
72124;BME280;63818;37.134;-8.548;2023-07-24T21:02:48;101348.2;;;22.5;53.8
72124;BME280;63818;37.134;-8.548;2023-07-24T21:07:34;101356.8;;;22.5;53.9
72124;BME280;63818;37.134;-8.548;2023-07-24T21:12:25;101341.2;;;22.5;53.9
72124;BME280;63818;37.134;-8.548;2023-07-24T21:17:11;101352.2;;;22.5;54.1
72124;BME280;63818;37.134;-8.548;2023-07-24T21:21:57;101347.7;;;22.4;54.8
72124;BME280;63818;37.134;-8.548;2023-07-24T21:26:45;101366.0;;;22.4;55.3
72124;BME280;63818;37.134;-8.548;2023-07-24T21:31:34;101363.4;;;22.5;55.0
72124;BME280;63818;37.134;-8.548;2023-07-24T21:36:21;101359.8;;;22.4;55.3
72124;BME280;63818;37.134;-8.548;2023-07-24T21:41:08;101390.9;;;22.2;55.8
72124;BME280;63818;37.134;-8.548;2023-07-24T21:45:54;101367.0;;;22.2;56.0
72124;BME280;63818;37.134;-8.548;2023-07-24T21:50:46;101368.9;;;22.2;56.1
72124;BME280;63818;37.134;-8.548;2023-07-24T21:55:32;101383.2;;;22.4;55.7
72124;BME280;63818;37.134;-8.548;2023-07-24T22:00:20;101377.2;;;22.2;56.0
72124;BME280;63818;37.134;-8.548;2023-07-24T22:05:08;101389.1;;;22.3;55.6
72124;BME280;63818;37.134;-8.548;2023-07-24T22:09:54;101386.5;;;22.2;56.1
72124;BME280;63818;37.134;-8.548;2023-07-24T22:14:45;101384.6;;;22.0;56.9
72124;BME280;63818;37.134;-8.548;2023-07-24T22:19:31;101370.1;;;21.9;57.2
72124;BME280;63818;37.134;-8.548;2023-07-24T22:24:17;101363.7;;;22.1;56.4
72124;BME280;63818;37.134;-8.548;2023-07-24T22:29:03;101372.7;;;22.1;56.9
72124;BME280;63818;37.134;-8.548;2023-07-24T22:33:49;101370.8;;;22.1;56.7
72124;BME280;63818;37.134;-8.548;2023-07-24T22:38:35;101379.4;;;22.1;56.7
72124;BME280;63818;37.134;-8.548;2023-07-24T22:43:24;101376.0;;;22.2;56.6
72124;BME280;63818;37.134;-8.548;2023-07-24T22:48:10;101378.9;;;22.0;57.3
72124;BME280;63818;37.134;-8.548;2023-07-24T22:52:58;101385.8;;;22.0;57.5
72124;BME280;63818;37.134;-8.548;2023-07-24T22:57:53;101396.4;;;21.7;58.3
72124;BME280;63818;37.134;-8.548;2023-07-24T23:02:42;101381.5;;;21.8;58.6
72124;BME280;63818;37.134;-8.548;2023-07-24T23:07:28;101378.1;;;21.8;58.0
72124;BME280;63818;37.134;-8.548;2023-07-24T23:12:14;101388.7;;;21.8;58.2
72124;BME280;63818;37.134;-8.548;2023-07-24T23:17:02;101389.6;;;21.9;57.8
72124;BME280;63818;37.134;-8.548;2023-07-24T23:21:48;101392.6;;;21.8;57.9
72124;BME280;63818;37.134;-8.548;2023-07-24T23:26:39;101384.4;;;21.8;58.2
72124;BME280;63818;37.134;-8.548;2023-07-24T23:31:25;101380.9;;;21.8;58.0
72124;BME280;63818;37.134;-8.548;2023-07-24T23:36:14;101381.4;;;21.9;57.6
72124;BME280;63818;37.134;-8.548;2023-07-24T23:41:05;101383.5;;;22.0;57.6
72124;BME280;63818;37.134;-8.548;2023-07-24T23:46:04;101388.1;;;22.2;56.7
72124;BME280;63818;37.134;-8.548;2023-07-24T23:50:53;101385.8;;;22.0;57.4
72124;BME280;63818;37.134;-8.548;2023-07-24T23:55:44;101372.9;;;22.0;57.3
